createdAt,value
2023-01-19T00:01:02.243Z,-4.30
2023-01-19T00:03:29.625Z,-4.50
2023-01-19T00:05:57.250Z,-4.50
2023-01-19T00:08:24.737Z,-4.60
2023-01-19T00:10:52.198Z,-4.60
2023-01-19T00:13:19.590Z,-4.70
2023-01-19T00:15:47.292Z,-4.70
2023-01-19T00:18:14.799Z,-4.60
2023-01-19T00:20:42.401Z,-4.80
2023-01-19T00:23:09.840Z,-4.70
2023-01-19T00:25:42.833Z,-4.50
2023-01-19T00:28:12.523Z,-4.40
2023-01-19T00:30:40.897Z,-4.40
2023-01-19T00:33:09.426Z,-4.40
2023-01-19T00:35:36.890Z,-4.40
2023-01-19T00:38:04.406Z,-4.40
2023-01-19T00:40:31.899Z,-4.50
2023-01-19T00:43:00.333Z,-4.40
2023-01-19T00:45:28.356Z,-4.60
2023-01-19T00:47:57.484Z,-4.80
2023-01-19T00:50:28.374Z,-4.90
2023-01-19T00:52:57.616Z,-5.00
2023-01-19T00:55:25.252Z,-5.10
2023-01-19T00:57:52.720Z,-5.20
2023-01-19T01:00:21.134Z,-5.30
2023-01-19T01:02:50.827Z,-5.20
2023-01-19T01:05:19.554Z,-5.40
2023-01-19T01:07:49.628Z,-5.40
2023-01-19T01:10:25.809Z,-5.50
2023-01-19T01:12:57.505Z,-5.50
2023-01-19T01:15:28.320Z,-5.50
2023-01-19T01:17:56.112Z,-5.70
2023-01-19T01:20:30.340Z,-5.70
2023-01-19T01:22:58.227Z,-5.60
2023-01-19T01:25:27.855Z,-5.70
2023-01-19T01:27:55.831Z,-5.80
2023-01-19T01:30:23.860Z,-5.60
2023-01-19T01:32:51.374Z,-5.60
2023-01-19T01:35:18.864Z,-5.50
2023-01-19T01:37:46.537Z,-5.60
2023-01-19T01:40:17.581Z,-5.60
2023-01-19T01:42:45.720Z,-5.50
2023-01-19T01:45:33.132Z,-5.70
2023-01-19T01:48:25.699Z,-5.70
2023-01-19T01:51:26.267Z,-5.80
2023-01-19T01:54:30.916Z,-5.80
2023-01-19T01:57:03.170Z,-5.80
2023-01-19T01:59:40.556Z,-5.80
2023-01-19T02:02:30.130Z,-5.80
2023-01-19T02:05:05.520Z,-5.90
2023-01-19T02:08:34.362Z,-6.00
2023-01-19T02:11:21.872Z,-5.90
2023-01-19T02:13:49.648Z,-5.50
2023-01-19T02:16:17.839Z,-5.60
2023-01-19T02:18:45.687Z,-5.60
2023-01-19T02:21:59.281Z,-5.50
2023-01-19T02:24:27.713Z,-5.60
2023-01-19T02:26:56.497Z,-5.80
2023-01-19T02:29:25.972Z,-5.70
2023-01-19T02:31:54.570Z,-5.90
2023-01-19T02:34:22.897Z,-5.80
2023-01-19T02:37:14.605Z,-5.80
2023-01-19T02:39:47.314Z,-5.80
2023-01-19T02:42:25.608Z,-5.90
2023-01-19T02:44:55.998Z,-5.90
2023-01-19T02:47:24.422Z,-6.00
2023-01-19T02:49:59.200Z,-6.10
2023-01-19T02:52:28.058Z,-6.00
2023-01-19T02:55:21.547Z,-6.20
2023-01-19T02:58:15.826Z,-6.20
2023-01-19T03:01:24.150Z,-6.20
2023-01-19T03:03:58.371Z,-6.20
2023-01-19T03:06:32.606Z,-6.40
2023-01-19T03:09:11.746Z,-6.50
2023-01-19T03:11:42.552Z,-6.70
2023-01-19T03:14:16.717Z,-6.60
2023-01-19T03:16:50.325Z,-6.30
2023-01-19T03:19:27.643Z,-6.40
2023-01-19T03:21:59.339Z,-6.40
2023-01-19T03:24:31.236Z,-6.30
2023-01-19T03:27:02.121Z,-6.20
2023-01-19T03:29:35.054Z,-6.30
2023-01-19T03:32:10.675Z,-6.30
2023-01-19T03:34:40.157Z,-6.10
2023-01-19T03:37:10.451Z,-5.90
2023-01-19T03:39:38.128Z,-6.00
2023-01-19T03:42:08.993Z,-6.10
2023-01-19T03:44:40.430Z,-6.10
2023-01-19T03:47:10.377Z,-6.30
2023-01-19T03:49:39.388Z,-6.20
2023-01-19T03:52:06.906Z,-6.10
2023-01-19T03:54:34.423Z,-6.20
2023-01-19T03:57:02.166Z,-6.30
2023-01-19T03:59:29.628Z,-6.50
2023-01-19T04:01:57.123Z,-6.70
2023-01-19T04:04:25.706Z,-6.50
2023-01-19T04:06:53.308Z,-6.70
2023-01-19T04:09:20.761Z,-6.50
2023-01-19T04:11:48.194Z,-6.60
2023-01-19T04:14:15.637Z,-6.50
2023-01-19T04:16:43.144Z,-6.30
2023-01-19T04:19:10.554Z,-6.30
2023-01-19T04:21:38.030Z,-6.40
2023-01-19T04:24:05.863Z,-6.40
2023-01-19T04:26:33.382Z,-6.60
2023-01-19T04:29:00.836Z,-6.40
2023-01-19T04:31:28.372Z,-6.50
2023-01-19T04:33:56.485Z,-6.70
2023-01-19T04:36:23.973Z,-6.50
2023-01-19T04:38:51.434Z,-6.60
2023-01-19T04:41:19.202Z,-6.70
2023-01-19T04:43:47.830Z,-6.90
2023-01-19T04:46:15.504Z,-7.00
2023-01-19T04:48:42.986Z,-6.90
2023-01-19T04:51:10.465Z,-7.00
2023-01-19T04:53:37.922Z,-7.00
2023-01-19T04:56:05.776Z,-7.00
2023-01-19T04:58:33.237Z,-6.80
2023-01-19T05:01:00.793Z,-6.80
2023-01-19T05:03:28.317Z,-6.80
2023-01-19T05:05:55.893Z,-6.80
2023-01-19T05:08:24.671Z,-6.80
2023-01-19T05:10:52.123Z,-6.80
2023-01-19T05:13:19.586Z,-6.90
2023-01-19T05:15:47.097Z,-6.80
2023-01-19T05:18:14.818Z,-6.90
2023-01-19T05:20:42.490Z,-6.80
2023-01-19T05:23:10.129Z,-6.80
2023-01-19T05:25:37.641Z,-6.70
2023-01-19T05:28:05.191Z,-5.70
2023-01-19T05:30:32.770Z,-5.90
2023-01-19T05:33:00.633Z,-6.10
2023-01-19T05:35:35.684Z,-6.20
2023-01-19T05:38:04.532Z,-6.40
2023-01-19T05:40:32.182Z,-6.50
2023-01-19T05:43:01.514Z,-6.70
2023-01-19T05:45:29.246Z,-6.80
2023-01-19T05:47:56.727Z,-6.80
2023-01-19T05:50:24.100Z,-6.60
2023-01-19T05:52:53.566Z,-6.10
2023-01-19T05:55:21.824Z,-6.40
2023-01-19T05:57:50.068Z,-6.50
2023-01-19T06:00:18.008Z,-6.70
2023-01-19T06:02:47.952Z,-6.80
2023-01-19T06:05:16.148Z,-6.80
2023-01-19T06:07:43.615Z,-7.00
2023-01-19T06:10:11.763Z,-6.90
2023-01-19T06:12:42.088Z,-6.80
2023-01-19T06:15:10.053Z,-6.90
2023-01-19T06:17:37.603Z,-6.90
2023-01-19T06:20:05.533Z,-7.00
2023-01-19T06:22:32.952Z,-7.10
2023-01-19T06:25:00.361Z,-7.10
2023-01-19T06:27:27.999Z,-6.90
2023-01-19T06:29:55.427Z,-6.90
2023-01-19T06:32:23.102Z,-7.00
2023-01-19T06:34:52.665Z,-6.90
2023-01-19T06:37:20.718Z,-7.00
2023-01-19T06:39:48.398Z,-7.00
2023-01-19T06:42:15.921Z,-7.00
2023-01-19T06:44:47.583Z,-7.00
2023-01-19T06:47:16.687Z,-7.00
2023-01-19T06:49:45.224Z,-7.10
2023-01-19T06:52:16.160Z,-7.20
2023-01-19T06:54:45.533Z,-7.20
2023-01-19T06:57:14.588Z,-7.10
2023-01-19T06:59:42.186Z,-7.00
2023-01-19T07:02:26.557Z,-6.80
2023-01-19T07:04:56.447Z,-6.70
2023-01-19T07:07:23.836Z,-6.60
2023-01-19T07:09:53.663Z,-6.70
2023-01-19T07:12:22.016Z,-6.80
2023-01-19T07:14:49.841Z,-6.60
2023-01-19T07:17:17.732Z,-6.50
2023-01-19T07:19:46.626Z,-6.50
2023-01-19T07:22:14.168Z,-6.30
2023-01-19T07:24:41.493Z,-6.20
2023-01-19T07:27:08.852Z,-6.10
2023-01-19T07:29:36.556Z,-6.10
2023-01-19T07:32:04.574Z,-5.90
2023-01-19T07:34:32.154Z,-5.90
2023-01-19T07:36:59.627Z,-6.00
2023-01-19T07:39:27.020Z,-6.00
2023-01-19T07:41:54.522Z,-6.10
2023-01-19T07:44:23.566Z,-6.10
2023-01-19T07:46:51.348Z,-5.90
2023-01-19T07:49:18.697Z,-5.70
2023-01-19T07:51:46.613Z,-5.50
2023-01-19T07:54:14.671Z,-5.20
2023-01-19T07:56:42.130Z,-5.10
2023-01-19T07:59:10.888Z,-5.10
2023-01-19T08:01:38.485Z,-5.00
2023-01-19T08:04:06.513Z,-4.90
2023-01-19T08:06:36.171Z,-4.70
2023-01-19T08:09:05.834Z,-4.60
2023-01-19T08:11:33.798Z,-4.40
2023-01-19T08:14:01.350Z,-4.50
2023-01-19T08:16:29.142Z,-4.50
2023-01-19T08:18:58.622Z,-4.40
2023-01-19T08:21:28.198Z,-4.20
2023-01-19T08:23:57.842Z,-4.00
2023-01-19T08:26:31.128Z,-3.80
2023-01-19T08:29:01.361Z,-3.70
2023-01-19T08:31:29.514Z,-3.60
2023-01-19T08:33:57.220Z,-3.50
2023-01-19T08:36:25.165Z,-3.50
2023-01-19T08:38:52.843Z,-3.40
2023-01-19T08:41:22.968Z,-3.30
2023-01-19T08:43:50.871Z,-3.20
2023-01-19T08:46:20.910Z,-3.10
2023-01-19T08:48:48.923Z,-3.00
2023-01-19T08:51:17.727Z,-2.80
2023-01-19T08:53:45.210Z,-2.80
2023-01-19T08:56:13.934Z,-2.70
2023-01-19T08:58:46.668Z,-2.60
2023-01-19T09:01:20.798Z,-2.50
2023-01-19T09:03:48.847Z,-2.60
2023-01-19T09:06:18.507Z,-2.40
2023-01-19T09:08:47.290Z,-2.30
2023-01-19T09:11:16.568Z,-2.30
2023-01-19T09:13:44.289Z,-2.30
2023-01-19T09:16:13.496Z,-2.30
2023-01-19T09:18:41.785Z,-2.10
2023-01-19T09:21:09.851Z,-2.00
2023-01-19T09:23:37.310Z,-1.90
2023-01-19T09:26:06.197Z,-1.80
2023-01-19T09:28:33.922Z,-1.60
2023-01-19T09:31:06.706Z,-1.40
2023-01-19T09:33:34.685Z,-1.30
2023-01-19T09:53:50.591Z,-0.30
2023-01-19T09:56:20.614Z,-0.20
2023-01-19T09:58:49.773Z,-0.30
2023-01-19T10:01:46.104Z,-0.20
2023-01-19T10:04:54.960Z,-0.20
2023-01-19T10:07:59.351Z,-0.20
2023-01-19T10:10:29.610Z,-0.20
2023-01-19T10:13:52.580Z,-0.10
2023-01-19T10:16:45.260Z,-0.20
2023-01-19T10:19:24.131Z,0.00
2023-01-19T10:21:53.445Z,0.20
2023-01-19T10:24:27.651Z,0.30
2023-01-19T10:26:56.840Z,0.40
2023-01-19T10:29:36.772Z,0.50
2023-01-19T10:32:13.040Z,0.50
2023-01-19T10:34:41.849Z,0.60
2023-01-19T10:37:34.300Z,0.70
2023-01-19T10:40:27.319Z,0.80
2023-01-19T10:42:57.283Z,0.80
2023-01-19T10:45:30.447Z,0.70
2023-01-19T10:48:01.246Z,0.60
2023-01-19T10:50:34.411Z,0.70
2023-01-19T10:53:05.744Z,0.70
2023-01-19T10:55:38.300Z,0.70
2023-01-19T10:58:25.886Z,0.70
2023-01-19T11:00:53.645Z,0.60
2023-01-19T11:03:32.064Z,0.60
2023-01-19T11:06:24.920Z,0.60
2023-01-19T11:08:53.965Z,0.70
2023-01-19T11:11:23.617Z,0.70
2023-01-19T11:14:14.033Z,0.70
2023-01-19T11:16:46.230Z,0.80
2023-01-19T11:19:27.154Z,1.00
2023-01-19T11:22:22.860Z,1.00
2023-01-19T11:24:50.416Z,1.10
2023-01-19T11:27:22.161Z,1.10
2023-01-19T11:30:17.600Z,1.20
2023-01-19T11:32:46.264Z,1.20
2023-01-19T11:35:35.047Z,1.30
2023-01-19T11:38:07.948Z,1.20
2023-01-19T11:40:35.872Z,1.20
2023-01-19T11:43:03.576Z,1.30
2023-01-19T11:45:34.134Z,1.20
2023-01-19T11:48:05.756Z,1.20
2023-01-19T11:50:42.512Z,1.20
2023-01-19T11:53:34.294Z,1.50
2023-01-19T11:56:12.152Z,1.50
2023-01-19T11:58:42.246Z,1.50
2023-01-19T12:01:21.225Z,1.40
2023-01-19T12:04:00.545Z,1.40
2023-01-19T12:06:38.081Z,1.40
2023-01-19T12:09:25.917Z,1.40
2023-01-19T12:12:25.795Z,1.60
2023-01-19T12:15:30.778Z,1.50
2023-01-19T12:18:02.018Z,1.60
2023-01-19T12:20:46.697Z,1.50
2023-01-19T12:23:31.420Z,1.50
2023-01-19T12:26:32.804Z,1.50
2023-01-19T12:29:13.766Z,1.60
2023-01-19T12:31:43.392Z,1.60
2023-01-19T12:34:26.228Z,1.70
2023-01-19T12:36:57.750Z,1.70
2023-01-19T12:39:27.224Z,1.80
2023-01-19T12:42:06.803Z,1.70
2023-01-19T12:44:34.914Z,1.80
2023-01-19T12:47:20.563Z,1.80
2023-01-19T12:49:51.579Z,1.90
2023-01-19T12:52:30.745Z,1.80
2023-01-19T12:55:22.907Z,1.90
2023-01-19T12:58:00.044Z,1.90
2023-01-19T13:00:36.013Z,1.80
2023-01-19T13:03:37.319Z,1.80
2023-01-19T13:06:04.834Z,1.80
2023-01-19T13:09:00.810Z,1.80
2023-01-19T13:11:33.320Z,1.80
2023-01-19T13:14:01.764Z,1.80
2023-01-19T13:16:59.017Z,1.90
2023-01-19T13:19:37.536Z,1.90
2023-01-19T13:22:42.513Z,1.90
2023-01-19T13:25:21.254Z,1.80
2023-01-19T13:27:49.938Z,2.00
2023-01-19T13:30:19.461Z,1.80
2023-01-19T13:32:47.784Z,1.90
2023-01-19T13:35:19.043Z,1.90
2023-01-19T13:37:46.714Z,1.80
2023-01-19T13:40:40.481Z,1.80
2023-01-19T13:43:18.197Z,1.70
2023-01-19T13:45:53.341Z,1.60
2023-01-19T13:48:23.352Z,1.60
2023-01-19T13:51:05.531Z,1.60
2023-01-19T13:53:34.257Z,1.60
2023-01-19T13:56:30.908Z,1.60
2023-01-19T13:59:16.283Z,1.60
2023-01-19T14:01:46.084Z,1.60
2023-01-19T14:04:33.516Z,1.60
2023-01-19T14:07:11.702Z,1.80
2023-01-19T14:09:40.021Z,1.70
2023-01-19T14:12:16.049Z,1.60
2023-01-19T14:14:47.010Z,1.70
2023-01-19T14:17:28.835Z,1.80
2023-01-19T14:19:58.622Z,1.70
2023-01-19T14:22:43.963Z,1.50
2023-01-19T14:25:34.621Z,1.50
2023-01-19T14:28:30.449Z,1.30
2023-01-19T14:31:02.685Z,1.30
2023-01-19T14:33:40.996Z,1.30
2023-01-19T14:36:40.410Z,1.30
2023-01-19T14:39:19.227Z,1.20
2023-01-19T14:41:52.921Z,1.00
2023-01-19T14:44:30.479Z,0.90
2023-01-19T14:46:59.741Z,0.70
2023-01-19T14:49:35.948Z,0.60
2023-01-19T14:52:06.816Z,0.40
2023-01-19T14:54:45.562Z,0.30
2023-01-19T14:57:14.213Z,0.10
2023-01-19T14:59:42.236Z,0.30
2023-01-19T15:02:09.752Z,0.60
2023-01-19T15:04:37.166Z,0.50
2023-01-19T15:07:04.665Z,0.50
2023-01-19T15:09:32.528Z,0.50
2023-01-19T15:12:00.410Z,0.40
2023-01-19T15:14:27.989Z,0.50
2023-01-19T15:16:55.415Z,0.20
2023-01-19T15:19:22.915Z,0.30
2023-01-19T15:21:50.343Z,0.30
2023-01-19T15:24:18.141Z,-0.10
2023-01-19T15:26:45.839Z,-0.40
2023-01-19T15:29:32.336Z,-0.30
2023-01-19T15:31:59.791Z,-0.40
2023-01-19T15:34:27.292Z,-0.50
2023-01-19T15:36:54.755Z,-0.60
2023-01-19T15:39:22.218Z,-0.70
2023-01-19T15:41:49.622Z,-0.80
2023-01-19T15:44:16.981Z,-0.90
2023-01-19T15:46:44.431Z,-0.80
2023-01-19T15:49:11.879Z,-0.80
2023-01-19T15:51:39.350Z,-0.90
2023-01-19T15:54:09.016Z,-1.10
2023-01-19T15:56:36.471Z,-1.20
2023-01-19T15:59:03.926Z,-1.30
2023-01-19T16:01:32.921Z,-1.30
2023-01-19T16:04:02.136Z,-1.30
2023-01-19T16:06:30.959Z,-1.20
2023-01-19T16:09:04.026Z,-1.30
2023-01-19T16:11:34.074Z,-1.40
2023-01-19T16:14:02.098Z,-1.70
2023-01-19T16:16:29.595Z,-1.80
2023-01-19T16:18:57.328Z,-1.90
2023-01-19T16:21:24.894Z,-1.90
2023-01-19T16:23:52.805Z,-2.00
2023-01-19T16:26:34.686Z,-2.00
2023-01-19T16:29:08.921Z,-2.10
2023-01-19T16:31:38.441Z,-2.20
2023-01-19T16:34:06.124Z,-2.10
2023-01-19T16:36:35.691Z,-2.40
2023-01-19T16:39:11.701Z,-2.40
2023-01-19T16:41:39.857Z,-2.70
2023-01-19T16:44:08.279Z,-2.60
2023-01-19T16:46:38.714Z,-2.80
2023-01-19T16:49:11.967Z,-2.70
2023-01-19T16:51:39.505Z,-2.70
2023-01-19T16:54:07.234Z,-2.80
2023-01-19T16:56:34.685Z,-2.70
2023-01-19T16:59:02.159Z,-2.60
2023-01-19T17:01:29.984Z,-2.70
2023-01-19T17:03:57.596Z,-2.70
2023-01-19T17:06:25.717Z,-2.70
2023-01-19T17:08:53.288Z,-2.70
2023-01-19T17:11:26.496Z,-2.60
2023-01-19T17:13:57.017Z,-2.80
2023-01-19T17:16:25.064Z,-2.80
2023-01-19T17:18:53.612Z,-2.80
2023-01-19T17:21:21.068Z,-2.80
2023-01-19T17:23:50.535Z,-2.70
2023-01-19T17:26:18.547Z,-2.60
2023-01-19T17:28:46.167Z,-2.60
2023-01-19T17:31:18.966Z,-2.40
2023-01-19T17:33:48.892Z,-1.90
2023-01-19T17:36:23.039Z,-1.40
2023-01-19T17:38:51.406Z,-1.60
2023-01-19T17:41:27.930Z,-1.70
2023-01-19T17:43:55.554Z,-1.60
2023-01-19T17:46:25.505Z,-1.60
2023-01-19T17:48:57.540Z,-1.60
2023-01-19T17:51:25.418Z,-1.40
2023-01-19T17:53:53.767Z,-1.60
2023-01-19T17:56:23.345Z,-1.60
2023-01-19T17:58:50.782Z,-1.40
2023-01-19T18:01:24.494Z,-1.20
2023-01-19T18:03:53.093Z,-1.30
2023-01-19T18:06:21.101Z,-1.20
2023-01-19T18:08:49.577Z,-1.20
2023-01-19T18:11:19.467Z,-1.10
2023-01-19T18:13:49.274Z,-1.00
2023-01-19T18:16:22.486Z,-1.10
2023-01-19T18:18:50.705Z,-1.20
2023-01-19T18:21:18.477Z,-1.30
2023-01-19T18:23:46.232Z,-1.20
2023-01-19T18:26:19.873Z,-1.10
2023-01-19T18:28:47.990Z,-1.00
2023-01-19T18:31:18.375Z,-0.80
2023-01-19T18:33:47.282Z,-0.90
2023-01-19T18:36:15.521Z,-0.90
2023-01-19T18:38:43.104Z,-0.70
2023-01-19T18:41:13.044Z,-0.70
2023-01-19T18:43:41.025Z,-0.60
2023-01-19T18:46:08.667Z,-0.50
2023-01-19T18:48:37.519Z,-0.40
2023-01-19T18:51:10.150Z,-0.40
2023-01-19T18:53:38.076Z,-0.40
2023-01-19T18:56:06.652Z,-0.40
2023-01-19T18:58:37.567Z,-0.20
2023-01-19T19:01:16.649Z,0.10
2023-01-19T19:03:44.204Z,-0.10
2023-01-19T19:06:11.920Z,-0.20
2023-01-19T19:08:39.991Z,-0.20
2023-01-19T19:11:09.094Z,-0.30
2023-01-19T19:13:37.086Z,-0.30
2023-01-19T19:16:06.733Z,-0.30
2023-01-19T19:18:35.468Z,-0.30
2023-01-19T19:21:08.043Z,-0.30
2023-01-19T19:23:36.869Z,-0.40
2023-01-19T19:26:09.844Z,-0.50
2023-01-19T19:28:38.406Z,-0.50
2023-01-19T19:31:08.513Z,-0.50
2023-01-19T19:33:37.587Z,-0.50
2023-01-19T19:36:06.333Z,-0.50
2023-01-19T19:38:34.865Z,-0.50
2023-01-19T19:41:08.999Z,-0.50
2023-01-19T19:43:37.067Z,-0.50
2023-01-19T19:46:07.251Z,-0.60
2023-01-19T19:48:39.026Z,-0.50
2023-01-19T19:51:19.346Z,-0.50
2023-01-19T19:53:49.592Z,-0.50
2023-01-19T19:56:21.473Z,-0.50
2023-01-19T19:58:50.503Z,-0.40
2023-01-19T20:01:21.565Z,-0.40
2023-01-19T20:03:49.616Z,-0.30
2023-01-19T20:06:21.319Z,-0.30
2023-01-19T20:08:50.102Z,-0.30
2023-01-19T20:11:23.269Z,-0.30
2023-01-19T20:13:51.007Z,-0.30
2023-01-19T20:16:20.884Z,-0.30
2023-01-19T20:18:51.596Z,-0.20
2023-01-19T20:21:24.717Z,-0.10
2023-01-19T20:23:53.208Z,-0.10
2023-01-19T20:26:25.247Z,-0.10
2023-01-19T20:28:53.165Z,0.00
2023-01-19T20:31:28.041Z,0.00
2023-01-19T20:33:57.628Z,0.00
2023-01-19T20:36:25.553Z,0.10
2023-01-19T20:38:55.152Z,0.10
2023-01-19T20:41:23.313Z,0.20
2023-01-19T20:43:51.224Z,0.10
2023-01-19T20:46:19.144Z,0.10
2023-01-19T20:48:50.935Z,0.00
2023-01-19T20:51:19.164Z,0.00
2023-01-19T20:53:47.440Z,0.00
2023-01-19T20:56:15.766Z,0.00
2023-01-19T20:58:43.326Z,0.00
2023-01-19T21:01:16.893Z,0.00
2023-01-19T21:03:44.745Z,-0.10
2023-01-19T21:06:13.070Z,-0.10
2023-01-19T21:08:41.147Z,-0.10
2023-01-19T21:11:09.653Z,-0.10
2023-01-19T21:13:37.558Z,-0.10
2023-01-19T21:16:05.723Z,-0.10
2023-01-19T21:18:33.546Z,-0.10
2023-01-19T21:21:01.362Z,0.10
2023-01-19T21:23:28.959Z,0.40
2023-01-19T21:25:58.955Z,0.60
2023-01-19T21:28:28.140Z,0.30
2023-01-19T21:30:57.172Z,0.30
2023-01-19T21:33:24.793Z,0.20
2023-01-19T21:35:57.399Z,0.20
2023-01-19T21:38:30.328Z,0.20
2023-01-19T21:40:58.659Z,0.20
2023-01-19T21:43:26.838Z,0.30
2023-01-19T21:45:54.274Z,0.30
2023-01-19T21:48:21.742Z,0.30
2023-01-19T21:50:57.270Z,0.50
2023-01-19T21:53:24.825Z,0.40
2023-01-19T21:55:52.254Z,0.30
2023-01-19T21:58:21.309Z,0.30
2023-01-19T22:00:48.791Z,0.40
2023-01-19T22:03:16.970Z,0.40
2023-01-19T22:05:44.440Z,0.40
2023-01-19T22:08:11.881Z,0.40
2023-01-19T22:10:39.310Z,0.50
2023-01-19T22:13:07.781Z,0.50
2023-01-19T22:15:36.631Z,0.40
2023-01-19T22:18:04.101Z,0.40
2023-01-19T22:20:31.478Z,0.30
2023-01-19T22:22:59.287Z,0.30
2023-01-19T22:25:28.053Z,0.30
2023-01-19T22:27:56.209Z,0.30
2023-01-19T22:30:23.770Z,0.20
2023-01-19T22:32:53.206Z,0.20
2023-01-19T22:35:21.446Z,0.20
2023-01-19T22:37:48.977Z,0.20
2023-01-19T22:40:16.944Z,0.20
2023-01-19T22:42:48.310Z,0.20
2023-01-19T22:45:16.117Z,0.20
2023-01-19T22:47:43.653Z,0.30
2023-01-19T22:50:11.293Z,0.30
2023-01-19T22:52:38.758Z,0.30
2023-01-19T22:55:06.576Z,0.30
2023-01-19T22:57:35.982Z,0.30
2023-01-19T23:00:07.206Z,0.20
2023-01-19T23:02:34.731Z,0.30
2023-01-19T23:05:02.012Z,0.30
2023-01-19T23:07:29.409Z,0.30
2023-01-19T23:09:56.732Z,0.30
2023-01-19T23:12:24.435Z,0.20
2023-01-19T23:14:51.768Z,0.20
2023-01-19T23:17:19.128Z,0.20
2023-01-19T23:19:46.511Z,0.20
2023-01-19T23:22:13.981Z,0.20
2023-01-19T23:24:41.450Z,0.40
2023-01-19T23:27:09.003Z,0.40
2023-01-19T23:29:36.411Z,0.50
2023-01-19T23:32:04.197Z,0.50
2023-01-19T23:34:31.661Z,0.50
2023-01-19T23:36:59.129Z,0.70
2023-01-19T23:39:26.563Z,0.90
2023-01-19T23:41:53.933Z,0.80
2023-01-19T23:44:21.483Z,0.80
2023-01-19T23:46:49.015Z,0.70
2023-01-19T23:49:17.117Z,0.70
2023-01-19T23:51:44.588Z,0.70
2023-01-19T23:54:12.429Z,0.80
2023-01-19T23:56:40.124Z,0.80
2023-01-19T23:59:10.646Z,0.70
